sensor_id;sensor_type;location;lat;lon;timestamp;P1;durP1;ratioP1;P2;durP2;ratioP2
9042;SDS011;4556;49.150;8.808;2022-12-11T00:01:52;28.30;;;19.97;;
9042;SDS011;4556;49.150;8.808;2022-12-11T00:04:19;27.93;;;19.30;;
9042;SDS011;4556;49.150;8.808;2022-12-11T00:06:46;29.67;;;20.07;;
9042;SDS011;4556;49.150;8.808;2022-12-11T00:09:15;27.77;;;19.80;;
9042;SDS011;4556;49.150;8.808;2022-12-11T00:11:43;26.43;;;19.10;;
9042;SDS011;4556;49.150;8.808;2022-12-11T00:14:10;24.93;;;18.47;;
9042;SDS011;4556;49.150;8.808;2022-12-11T00:16:37;27.67;;;19.37;;
9042;SDS011;4556;49.150;8.808;2022-12-11T00:19:04;26.40;;;18.70;;
9042;SDS011;4556;49.150;8.808;2022-12-11T00:21:31;25.13;;;18.63;;
9042;SDS011;4556;49.150;8.808;2022-12-11T00:23:59;25.37;;;18.67;;
9042;SDS011;4556;49.150;8.808;2022-12-11T00:26:27;26.60;;;18.23;;
9042;SDS011;4556;49.150;8.808;2022-12-11T00:28:54;25.77;;;17.80;;
9042;SDS011;4556;49.150;8.808;2022-12-11T00:31:22;24.13;;;16.77;;
9042;SDS011;4556;49.150;8.808;2022-12-11T00:33:49;24.47;;;17.33;;
9042;SDS011;4556;49.150;8.808;2022-12-11T00:36:17;21.93;;;16.40;;
9042;SDS011;4556;49.150;8.808;2022-12-11T00:38:46;26.00;;;17.23;;
9042;SDS011;4556;49.150;8.808;2022-12-11T00:41:13;25.93;;;17.17;;
9042;SDS011;4556;49.150;8.808;2022-12-11T00:43:42;26.47;;;18.10;;
9042;SDS011;4556;49.150;8.808;2022-12-11T00:46:09;26.17;;;18.30;;
9042;SDS011;4556;49.150;8.808;2022-12-11T00:48:37;26.27;;;18.27;;
9042;SDS011;4556;49.150;8.808;2022-12-11T00:51:04;25.67;;;18.23;;
9042;SDS011;4556;49.150;8.808;2022-12-11T00:53:32;25.17;;;18.63;;
9042;SDS011;4556;49.150;8.808;2022-12-11T00:55:59;28.90;;;18.83;;
9042;SDS011;4556;49.150;8.808;2022-12-11T00:58:25;25.80;;;17.70;;
9042;SDS011;4556;49.150;8.808;2022-12-11T01:00:54;27.13;;;17.63;;
9042;SDS011;4556;49.150;8.808;2022-12-11T01:03:31;24.80;;;17.10;;
9042;SDS011;4556;49.150;8.808;2022-12-11T01:05:58;25.47;;;16.63;;
9042;SDS011;4556;49.150;8.808;2022-12-11T01:08:25;28.10;;;18.17;;
9042;SDS011;4556;49.150;8.808;2022-12-11T01:10:59;29.33;;;17.90;;
9042;SDS011;4556;49.150;8.808;2022-12-11T01:13:26;24.13;;;16.67;;
9042;SDS011;4556;49.150;8.808;2022-12-11T01:15:54;26.07;;;17.37;;
9042;SDS011;4556;49.150;8.808;2022-12-11T01:18:21;24.70;;;16.03;;
9042;SDS011;4556;49.150;8.808;2022-12-11T01:20:48;28.77;;;18.03;;
9042;SDS011;4556;49.150;8.808;2022-12-11T01:23:15;26.93;;;17.50;;
9042;SDS011;4556;49.150;8.808;2022-12-11T01:25:41;24.87;;;16.87;;
9042;SDS011;4556;49.150;8.808;2022-12-11T01:28:09;28.00;;;17.87;;
9042;SDS011;4556;49.150;8.808;2022-12-11T01:30:36;26.43;;;17.97;;
9042;SDS011;4556;49.150;8.808;2022-12-11T01:33:07;23.13;;;16.60;;
9042;SDS011;4556;49.150;8.808;2022-12-11T01:35:34;24.53;;;16.13;;
9042;SDS011;4556;49.150;8.808;2022-12-11T01:38:01;25.73;;;17.47;;
9042;SDS011;4556;49.150;8.808;2022-12-11T01:40:28;28.70;;;18.33;;
9042;SDS011;4556;49.150;8.808;2022-12-11T01:42:54;28.03;;;18.03;;
9042;SDS011;4556;49.150;8.808;2022-12-11T01:45:22;27.23;;;18.43;;
9042;SDS011;4556;49.150;8.808;2022-12-11T01:50:46;30.57;;;19.93;;
9042;SDS011;4556;49.150;8.808;2022-12-11T01:53:17;27.93;;;19.33;;
9042;SDS011;4556;49.150;8.808;2022-12-11T01:55:46;28.13;;;19.43;;
9042;SDS011;4556;49.150;8.808;2022-12-11T01:58:16;30.23;;;19.70;;
9042;SDS011;4556;49.150;8.808;2022-12-11T02:00:45;29.47;;;19.47;;
9042;SDS011;4556;49.150;8.808;2022-12-11T02:03:14;30.53;;;19.40;;
9042;SDS011;4556;49.150;8.808;2022-12-11T02:05:41;27.87;;;18.80;;
9042;SDS011;4556;49.150;8.808;2022-12-11T02:08:08;28.37;;;19.37;;
9042;SDS011;4556;49.150;8.808;2022-12-11T02:10:40;29.83;;;20.63;;
9042;SDS011;4556;49.150;8.808;2022-12-11T02:13:13;29.37;;;18.90;;
9042;SDS011;4556;49.150;8.808;2022-12-11T02:15:46;29.27;;;19.63;;
9042;SDS011;4556;49.150;8.808;2022-12-11T02:18:19;32.13;;;19.87;;
9042;SDS011;4556;49.150;8.808;2022-12-11T02:20:53;31.23;;;20.10;;
9042;SDS011;4556;49.150;8.808;2022-12-11T02:23:46;29.07;;;18.90;;
9042;SDS011;4556;49.150;8.808;2022-12-11T02:26:33;29.93;;;20.37;;
9042;SDS011;4556;49.150;8.808;2022-12-11T02:29:24;31.10;;;20.13;;
9042;SDS011;4556;49.150;8.808;2022-12-11T02:31:56;31.50;;;20.30;;
9042;SDS011;4556;49.150;8.808;2022-12-11T02:34:28;32.93;;;20.87;;
9042;SDS011;4556;49.150;8.808;2022-12-11T02:37:03;32.70;;;20.83;;
9042;SDS011;4556;49.150;8.808;2022-12-11T02:39:33;29.90;;;20.33;;
9042;SDS011;4556;49.150;8.808;2022-12-11T02:42:07;31.40;;;20.50;;
9042;SDS011;4556;49.150;8.808;2022-12-11T02:44:37;35.57;;;21.57;;
9042;SDS011;4556;49.150;8.808;2022-12-11T02:47:07;33.17;;;20.83;;
9042;SDS011;4556;49.150;8.808;2022-12-11T02:49:37;33.53;;;20.30;;
9042;SDS011;4556;49.150;8.808;2022-12-11T02:52:06;36.17;;;21.97;;
9042;SDS011;4556;49.150;8.808;2022-12-11T02:54:36;35.83;;;21.53;;
9042;SDS011;4556;49.150;8.808;2022-12-11T02:57:06;35.10;;;20.73;;
9042;SDS011;4556;49.150;8.808;2022-12-11T02:59:38;33.43;;;21.10;;
9042;SDS011;4556;49.150;8.808;2022-12-11T03:02:07;32.83;;;21.03;;
9042;SDS011;4556;49.150;8.808;2022-12-11T03:04:35;36.00;;;22.17;;
9042;SDS011;4556;49.150;8.808;2022-12-11T03:07:05;35.30;;;21.30;;
9042;SDS011;4556;49.150;8.808;2022-12-11T03:09:36;34.00;;;21.77;;
9042;SDS011;4556;49.150;8.808;2022-12-11T03:12:04;38.90;;;22.33;;
9042;SDS011;4556;49.150;8.808;2022-12-11T03:14:33;39.73;;;23.90;;
9042;SDS011;4556;49.150;8.808;2022-12-11T03:17:03;34.27;;;22.10;;
9042;SDS011;4556;49.150;8.808;2022-12-11T03:19:34;35.33;;;22.77;;
9042;SDS011;4556;49.150;8.808;2022-12-11T03:22:08;40.33;;;24.33;;
9042;SDS011;4556;49.150;8.808;2022-12-11T03:24:37;38.47;;;22.93;;
9042;SDS011;4556;49.150;8.808;2022-12-11T03:27:09;36.33;;;22.30;;
9042;SDS011;4556;49.150;8.808;2022-12-11T03:29:44;35.97;;;22.70;;
9042;SDS011;4556;49.150;8.808;2022-12-11T03:32:18;39.23;;;21.70;;
9042;SDS011;4556;49.150;8.808;2022-12-11T03:34:49;36.97;;;22.37;;
9042;SDS011;4556;49.150;8.808;2022-12-11T03:37:20;41.17;;;23.47;;
9042;SDS011;4556;49.150;8.808;2022-12-11T03:39:50;36.93;;;23.17;;
9042;SDS011;4556;49.150;8.808;2022-12-11T03:42:20;40.10;;;23.67;;
9042;SDS011;4556;49.150;8.808;2022-12-11T03:44:49;39.93;;;22.87;;
9042;SDS011;4556;49.150;8.808;2022-12-11T03:47:21;37.80;;;23.73;;
9042;SDS011;4556;49.150;8.808;2022-12-11T03:49:50;37.50;;;23.60;;
9042;SDS011;4556;49.150;8.808;2022-12-11T03:52:19;38.20;;;23.17;;
9042;SDS011;4556;49.150;8.808;2022-12-11T03:54:48;38.27;;;23.53;;
9042;SDS011;4556;49.150;8.808;2022-12-11T03:57:17;39.23;;;23.13;;
9042;SDS011;4556;49.150;8.808;2022-12-11T03:59:48;38.37;;;22.90;;
9042;SDS011;4556;49.150;8.808;2022-12-11T04:02:14;34.13;;;21.73;;
9042;SDS011;4556;49.150;8.808;2022-12-11T04:04:43;34.93;;;22.10;;
9042;SDS011;4556;49.150;8.808;2022-12-11T04:07:10;34.43;;;21.50;;
9042;SDS011;4556;49.150;8.808;2022-12-11T04:09:37;36.63;;;22.17;;
9042;SDS011;4556;49.150;8.808;2022-12-11T04:12:04;33.90;;;20.63;;
9042;SDS011;4556;49.150;8.808;2022-12-11T04:14:31;32.83;;;21.27;;
9042;SDS011;4556;49.150;8.808;2022-12-11T04:17:15;34.70;;;22.00;;
9042;SDS011;4556;49.150;8.808;2022-12-11T04:20:04;33.73;;;22.30;;
9042;SDS011;4556;49.150;8.808;2022-12-11T04:22:49;34.67;;;21.53;;
9042;SDS011;4556;49.150;8.808;2022-12-11T04:25:33;37.50;;;23.60;;
9042;SDS011;4556;49.150;8.808;2022-12-11T04:28:00;39.13;;;23.00;;
9042;SDS011;4556;49.150;8.808;2022-12-11T04:30:27;33.07;;;21.53;;
9042;SDS011;4556;49.150;8.808;2022-12-11T04:32:54;34.37;;;21.33;;
9042;SDS011;4556;49.150;8.808;2022-12-11T04:35:22;35.53;;;21.83;;
9042;SDS011;4556;49.150;8.808;2022-12-11T04:37:50;36.13;;;21.83;;
9042;SDS011;4556;49.150;8.808;2022-12-11T04:40:18;37.37;;;21.23;;
9042;SDS011;4556;49.150;8.808;2022-12-11T04:42:45;35.40;;;21.17;;
9042;SDS011;4556;49.150;8.808;2022-12-11T04:45:12;36.50;;;21.97;;
9042;SDS011;4556;49.150;8.808;2022-12-11T04:47:39;36.63;;;21.37;;
9042;SDS011;4556;49.150;8.808;2022-12-11T04:50:07;31.37;;;20.43;;
9042;SDS011;4556;49.150;8.808;2022-12-11T04:52:37;33.63;;;21.13;;
9042;SDS011;4556;49.150;8.808;2022-12-11T04:55:06;36.03;;;22.60;;
9042;SDS011;4556;49.150;8.808;2022-12-11T04:57:33;35.40;;;21.63;;
9042;SDS011;4556;49.150;8.808;2022-12-11T05:00:00;34.50;;;20.97;;
9042;SDS011;4556;49.150;8.808;2022-12-11T05:02:28;37.13;;;22.20;;
9042;SDS011;4556;49.150;8.808;2022-12-11T05:04:55;37.33;;;21.37;;
9042;SDS011;4556;49.150;8.808;2022-12-11T05:07:22;37.23;;;22.77;;
9042;SDS011;4556;49.150;8.808;2022-12-11T05:09:51;36.23;;;20.57;;
9042;SDS011;4556;49.150;8.808;2022-12-11T05:12:17;34.70;;;21.33;;
9042;SDS011;4556;49.150;8.808;2022-12-11T05:14:44;37.10;;;22.83;;
9042;SDS011;4556;49.150;8.808;2022-12-11T05:17:11;35.10;;;21.20;;
9042;SDS011;4556;49.150;8.808;2022-12-11T05:19:38;34.63;;;21.50;;
9042;SDS011;4556;49.150;8.808;2022-12-11T05:22:05;34.63;;;21.03;;
9042;SDS011;4556;49.150;8.808;2022-12-11T05:24:32;38.00;;;22.13;;
9042;SDS011;4556;49.150;8.808;2022-12-11T05:27:00;36.97;;;21.50;;
9042;SDS011;4556;49.150;8.808;2022-12-11T05:29:27;39.30;;;22.03;;
9042;SDS011;4556;49.150;8.808;2022-12-11T05:31:54;38.27;;;21.23;;
9042;SDS011;4556;49.150;8.808;2022-12-11T05:34:21;40.63;;;23.93;;
9042;SDS011;4556;49.150;8.808;2022-12-11T05:36:48;38.83;;;21.10;;
9042;SDS011;4556;49.150;8.808;2022-12-11T05:39:15;38.13;;;22.30;;
9042;SDS011;4556;49.150;8.808;2022-12-11T05:41:42;42.43;;;22.53;;
9042;SDS011;4556;49.150;8.808;2022-12-11T05:44:10;39.47;;;23.20;;
9042;SDS011;4556;49.150;8.808;2022-12-11T05:46:38;38.63;;;21.90;;
9042;SDS011;4556;49.150;8.808;2022-12-11T05:49:06;40.07;;;22.73;;
9042;SDS011;4556;49.150;8.808;2022-12-11T05:51:33;41.13;;;22.37;;
9042;SDS011;4556;49.150;8.808;2022-12-11T05:54:00;37.00;;;22.87;;
9042;SDS011;4556;49.150;8.808;2022-12-11T05:56:28;39.50;;;22.43;;
9042;SDS011;4556;49.150;8.808;2022-12-11T05:58:58;41.60;;;23.40;;
9042;SDS011;4556;49.150;8.808;2022-12-11T06:01:28;40.93;;;24.03;;
9042;SDS011;4556;49.150;8.808;2022-12-11T06:03:57;42.47;;;23.93;;
9042;SDS011;4556;49.150;8.808;2022-12-11T06:06:25;41.80;;;22.90;;
9042;SDS011;4556;49.150;8.808;2022-12-11T06:08:53;39.00;;;23.07;;
9042;SDS011;4556;49.150;8.808;2022-12-11T06:11:21;36.73;;;20.97;;
9042;SDS011;4556;49.150;8.808;2022-12-11T06:13:49;41.90;;;24.23;;
9042;SDS011;4556;49.150;8.808;2022-12-11T06:16:16;37.87;;;22.90;;
9042;SDS011;4556;49.150;8.808;2022-12-11T06:18:45;40.07;;;22.30;;
9042;SDS011;4556;49.150;8.808;2022-12-11T06:21:12;38.63;;;23.37;;
9042;SDS011;4556;49.150;8.808;2022-12-11T06:23:40;40.50;;;22.50;;
9042;SDS011;4556;49.150;8.808;2022-12-11T06:26:07;37.43;;;21.77;;
9042;SDS011;4556;49.150;8.808;2022-12-11T06:28:34;40.63;;;23.10;;
9042;SDS011;4556;49.150;8.808;2022-12-11T06:31:01;42.97;;;23.27;;
9042;SDS011;4556;49.150;8.808;2022-12-11T06:33:28;39.53;;;23.17;;
9042;SDS011;4556;49.150;8.808;2022-12-11T06:35:56;43.73;;;24.10;;
9042;SDS011;4556;49.150;8.808;2022-12-11T06:38:26;42.17;;;23.90;;
9042;SDS011;4556;49.150;8.808;2022-12-11T06:40:54;40.50;;;23.73;;
9042;SDS011;4556;49.150;8.808;2022-12-11T06:43:21;41.17;;;23.90;;
9042;SDS011;4556;49.150;8.808;2022-12-11T06:45:48;46.00;;;24.07;;
9042;SDS011;4556;49.150;8.808;2022-12-11T06:48:15;40.97;;;21.83;;
9042;SDS011;4556;49.150;8.808;2022-12-11T06:50:42;41.17;;;22.23;;
9042;SDS011;4556;49.150;8.808;2022-12-11T06:53:12;37.57;;;22.37;;
9042;SDS011;4556;49.150;8.808;2022-12-11T06:55:40;41.60;;;23.53;;
9042;SDS011;4556;49.150;8.808;2022-12-11T06:58:07;38.67;;;23.23;;
9042;SDS011;4556;49.150;8.808;2022-12-11T07:00:36;39.47;;;23.13;;
9042;SDS011;4556;49.150;8.808;2022-12-11T07:03:03;38.83;;;23.63;;
9042;SDS011;4556;49.150;8.808;2022-12-11T07:05:30;37.30;;;22.93;;
9042;SDS011;4556;49.150;8.808;2022-12-11T07:07:58;36.23;;;21.30;;
9042;SDS011;4556;49.150;8.808;2022-12-11T07:10:26;36.57;;;21.37;;
9042;SDS011;4556;49.150;8.808;2022-12-11T07:12:53;36.40;;;22.27;;
9042;SDS011;4556;49.150;8.808;2022-12-11T07:15:20;41.93;;;23.27;;
9042;SDS011;4556;49.150;8.808;2022-12-11T07:17:47;35.60;;;22.40;;
9042;SDS011;4556;49.150;8.808;2022-12-11T07:20:14;34.20;;;20.47;;
9042;SDS011;4556;49.150;8.808;2022-12-11T07:22:41;37.97;;;22.83;;
9042;SDS011;4556;49.150;8.808;2022-12-11T07:25:08;40.90;;;22.03;;
9042;SDS011;4556;49.150;8.808;2022-12-11T07:27:37;36.10;;;21.17;;
9042;SDS011;4556;49.150;8.808;2022-12-11T07:30:06;37.60;;;21.50;;
9042;SDS011;4556;49.150;8.808;2022-12-11T07:32:34;37.40;;;22.10;;
9042;SDS011;4556;49.150;8.808;2022-12-11T07:35:01;41.07;;;22.17;;
9042;SDS011;4556;49.150;8.808;2022-12-11T07:37:29;35.50;;;21.77;;
9042;SDS011;4556;49.150;8.808;2022-12-11T07:39:56;40.50;;;22.97;;
9042;SDS011;4556;49.150;8.808;2022-12-11T07:42:22;38.87;;;22.83;;
9042;SDS011;4556;49.150;8.808;2022-12-11T07:44:51;40.20;;;21.73;;
9042;SDS011;4556;49.150;8.808;2022-12-11T07:47:17;38.20;;;22.27;;
9042;SDS011;4556;49.150;8.808;2022-12-11T07:49:44;34.17;;;20.77;;
9042;SDS011;4556;49.150;8.808;2022-12-11T07:52:11;38.60;;;21.33;;
9042;SDS011;4556;49.150;8.808;2022-12-11T07:54:38;34.20;;;21.10;;
9042;SDS011;4556;49.150;8.808;2022-12-11T07:57:05;39.03;;;21.30;;
9042;SDS011;4556;49.150;8.808;2022-12-11T07:59:32;36.00;;;20.17;;
9042;SDS011;4556;49.150;8.808;2022-12-11T08:02:00;36.57;;;21.07;;
9042;SDS011;4556;49.150;8.808;2022-12-11T08:04:27;36.23;;;20.87;;
9042;SDS011;4556;49.150;8.808;2022-12-11T08:06:54;34.23;;;19.93;;
9042;SDS011;4556;49.150;8.808;2022-12-11T08:09:22;32.17;;;20.20;;
9042;SDS011;4556;49.150;8.808;2022-12-11T08:11:50;36.63;;;21.33;;
9042;SDS011;4556;49.150;8.808;2022-12-11T08:14:17;37.10;;;21.10;;
9042;SDS011;4556;49.150;8.808;2022-12-11T08:16:45;39.17;;;21.73;;
9042;SDS011;4556;49.150;8.808;2022-12-11T08:19:13;37.20;;;20.83;;
9042;SDS011;4556;49.150;8.808;2022-12-11T08:21:42;31.77;;;20.07;;
9042;SDS011;4556;49.150;8.808;2022-12-11T08:24:09;35.17;;;20.33;;
9042;SDS011;4556;49.150;8.808;2022-12-11T08:26:36;35.23;;;20.53;;
9042;SDS011;4556;49.150;8.808;2022-12-11T08:29:04;35.37;;;20.83;;
9042;SDS011;4556;49.150;8.808;2022-12-11T08:31:31;32.67;;;19.83;;
9042;SDS011;4556;49.150;8.808;2022-12-11T08:33:58;32.13;;;20.60;;
9042;SDS011;4556;49.150;8.808;2022-12-11T08:36:27;34.40;;;20.37;;
9042;SDS011;4556;49.150;8.808;2022-12-11T08:38:54;32.97;;;20.00;;
9042;SDS011;4556;49.150;8.808;2022-12-11T08:41:22;36.27;;;21.20;;
9042;SDS011;4556;49.150;8.808;2022-12-11T08:43:51;34.23;;;20.60;;
9042;SDS011;4556;49.150;8.808;2022-12-11T08:46:20;36.17;;;21.00;;
9042;SDS011;4556;49.150;8.808;2022-12-11T08:48:48;35.30;;;20.60;;
9042;SDS011;4556;49.150;8.808;2022-12-11T08:51:16;31.13;;;18.23;;
9042;SDS011;4556;49.150;8.808;2022-12-11T08:53:47;33.63;;;19.13;;
9042;SDS011;4556;49.150;8.808;2022-12-11T08:56:14;33.87;;;19.63;;
9042;SDS011;4556;49.150;8.808;2022-12-11T08:58:43;31.63;;;19.17;;
9042;SDS011;4556;49.150;8.808;2022-12-11T09:01:11;29.93;;;19.43;;
9042;SDS011;4556;49.150;8.808;2022-12-11T09:03:39;33.23;;;19.73;;
9042;SDS011;4556;49.150;8.808;2022-12-11T09:06:07;31.33;;;18.67;;
9042;SDS011;4556;49.150;8.808;2022-12-11T09:08:37;30.60;;;18.57;;
9042;SDS011;4556;49.150;8.808;2022-12-11T09:11:06;32.73;;;18.27;;
9042;SDS011;4556;49.150;8.808;2022-12-11T09:13:34;32.37;;;19.00;;
9042;SDS011;4556;49.150;8.808;2022-12-11T09:16:02;29.97;;;18.10;;
9042;SDS011;4556;49.150;8.808;2022-12-11T09:18:30;32.43;;;18.77;;
9042;SDS011;4556;49.150;8.808;2022-12-11T09:20:57;31.67;;;17.60;;
9042;SDS011;4556;49.150;8.808;2022-12-11T09:23:25;29.50;;;17.20;;
9042;SDS011;4556;49.150;8.808;2022-12-11T09:25:52;29.80;;;16.93;;
9042;SDS011;4556;49.150;8.808;2022-12-11T09:28:21;28.23;;;18.07;;
9042;SDS011;4556;49.150;8.808;2022-12-11T09:30:48;29.30;;;16.97;;
9042;SDS011;4556;49.150;8.808;2022-12-11T09:33:15;30.37;;;17.50;;
9042;SDS011;4556;49.150;8.808;2022-12-11T09:35:42;31.93;;;17.90;;
9042;SDS011;4556;49.150;8.808;2022-12-11T09:38:09;30.57;;;17.80;;
9042;SDS011;4556;49.150;8.808;2022-12-11T09:40:38;33.70;;;18.20;;
9042;SDS011;4556;49.150;8.808;2022-12-11T09:43:08;28.20;;;17.07;;
9042;SDS011;4556;49.150;8.808;2022-12-11T09:45:45;29.47;;;17.03;;
9042;SDS011;4556;49.150;8.808;2022-12-11T09:48:18;29.80;;;17.23;;
9042;SDS011;4556;49.150;8.808;2022-12-11T09:50:48;30.10;;;17.43;;
9042;SDS011;4556;49.150;8.808;2022-12-11T09:53:19;29.93;;;17.70;;
9042;SDS011;4556;49.150;8.808;2022-12-11T09:55:53;32.10;;;17.43;;
9042;SDS011;4556;49.150;8.808;2022-12-11T09:58:26;29.10;;;17.43;;
9042;SDS011;4556;49.150;8.808;2022-12-11T10:01:06;29.80;;;17.73;;
9042;SDS011;4556;49.150;8.808;2022-12-11T10:03:49;29.30;;;17.37;;
9042;SDS011;4556;49.150;8.808;2022-12-11T10:06:34;33.53;;;17.93;;
9042;SDS011;4556;49.150;8.808;2022-12-11T10:09:09;36.03;;;19.37;;
9042;SDS011;4556;49.150;8.808;2022-12-11T10:11:52;32.00;;;19.10;;
9042;SDS011;4556;49.150;8.808;2022-12-11T10:14:28;28.47;;;17.10;;
9042;SDS011;4556;49.150;8.808;2022-12-11T10:17:05;30.50;;;18.73;;
9042;SDS011;4556;49.150;8.808;2022-12-11T10:19:37;28.57;;;16.87;;
9042;SDS011;4556;49.150;8.808;2022-12-11T10:22:07;32.13;;;18.30;;
9042;SDS011;4556;49.150;8.808;2022-12-11T10:24:43;27.57;;;17.13;;
9042;SDS011;4556;49.150;8.808;2022-12-11T10:27:14;29.33;;;17.23;;
9042;SDS011;4556;49.150;8.808;2022-12-11T10:29:43;28.77;;;17.47;;
9042;SDS011;4556;49.150;8.808;2022-12-11T10:32:14;28.70;;;17.50;;
9042;SDS011;4556;49.150;8.808;2022-12-11T10:34:48;30.07;;;17.30;;
9042;SDS011;4556;49.150;8.808;2022-12-11T10:37:21;28.40;;;16.23;;
9042;SDS011;4556;49.150;8.808;2022-12-11T10:39:48;30.80;;;17.23;;
9042;SDS011;4556;49.150;8.808;2022-12-11T10:42:16;29.37;;;17.57;;
9042;SDS011;4556;49.150;8.808;2022-12-11T10:44:54;28.23;;;17.93;;
9042;SDS011;4556;49.150;8.808;2022-12-11T10:47:23;29.67;;;18.20;;
9042;SDS011;4556;49.150;8.808;2022-12-11T10:49:52;30.27;;;18.30;;
9042;SDS011;4556;49.150;8.808;2022-12-11T10:52:21;30.00;;;18.50;;
9042;SDS011;4556;49.150;8.808;2022-12-11T10:54:54;30.67;;;18.27;;
9042;SDS011;4556;49.150;8.808;2022-12-11T10:57:25;31.03;;;17.93;;
9042;SDS011;4556;49.150;8.808;2022-12-11T10:59:54;31.03;;;18.17;;
9042;SDS011;4556;49.150;8.808;2022-12-11T11:02:25;31.80;;;18.90;;
9042;SDS011;4556;49.150;8.808;2022-12-11T11:04:54;30.97;;;18.40;;
9042;SDS011;4556;49.150;8.808;2022-12-11T11:07:23;31.03;;;18.07;;
9042;SDS011;4556;49.150;8.808;2022-12-11T11:10:03;30.10;;;19.20;;
9042;SDS011;4556;49.150;8.808;2022-12-11T11:12:35;28.90;;;18.70;;
9042;SDS011;4556;49.150;8.808;2022-12-11T11:15:04;34.67;;;18.97;;
9042;SDS011;4556;49.150;8.808;2022-12-11T11:17:39;30.70;;;17.97;;
9042;SDS011;4556;49.150;8.808;2022-12-11T11:20:11;32.60;;;18.90;;
9042;SDS011;4556;49.150;8.808;2022-12-11T11:22:43;30.83;;;17.70;;
9042;SDS011;4556;49.150;8.808;2022-12-11T11:25:14;32.70;;;17.87;;
9042;SDS011;4556;49.150;8.808;2022-12-11T11:27:45;30.77;;;18.53;;
9042;SDS011;4556;49.150;8.808;2022-12-11T11:30:17;31.60;;;17.93;;
9042;SDS011;4556;49.150;8.808;2022-12-11T11:32:48;30.63;;;19.07;;
9042;SDS011;4556;49.150;8.808;2022-12-11T11:35:18;31.13;;;19.30;;
9042;SDS011;4556;49.150;8.808;2022-12-11T11:37:52;31.80;;;19.00;;
9042;SDS011;4556;49.150;8.808;2022-12-11T11:40:24;30.40;;;18.23;;
9042;SDS011;4556;49.150;8.808;2022-12-11T11:42:56;29.40;;;18.73;;
9042;SDS011;4556;49.150;8.808;2022-12-11T11:45:30;26.63;;;17.17;;
9042;SDS011;4556;49.150;8.808;2022-12-11T11:48:09;30.23;;;17.80;;
9042;SDS011;4556;49.150;8.808;2022-12-11T11:50:49;28.70;;;17.80;;
9042;SDS011;4556;49.150;8.808;2022-12-11T11:53:19;26.83;;;16.50;;
9042;SDS011;4556;49.150;8.808;2022-12-11T11:55:51;29.60;;;18.60;;
9042;SDS011;4556;49.150;8.808;2022-12-11T11:58:26;29.47;;;17.50;;
9042;SDS011;4556;49.150;8.808;2022-12-11T12:01:02;28.17;;;17.97;;
9042;SDS011;4556;49.150;8.808;2022-12-11T12:03:30;29.23;;;17.30;;
9042;SDS011;4556;49.150;8.808;2022-12-11T12:05:59;25.57;;;16.57;;
9042;SDS011;4556;49.150;8.808;2022-12-11T12:08:40;30.33;;;17.83;;
9042;SDS011;4556;49.150;8.808;2022-12-11T12:11:14;29.87;;;17.90;;
9042;SDS011;4556;49.150;8.808;2022-12-11T12:13:52;28.63;;;17.20;;
9042;SDS011;4556;49.150;8.808;2022-12-11T12:16:26;31.03;;;18.03;;
9042;SDS011;4556;49.150;8.808;2022-12-11T12:19:11;27.13;;;16.70;;
9042;SDS011;4556;49.150;8.808;2022-12-11T12:21:45;28.27;;;16.90;;
9042;SDS011;4556;49.150;8.808;2022-12-11T12:24:17;22.90;;;15.10;;
9042;SDS011;4556;49.150;8.808;2022-12-11T12:26:54;26.20;;;16.17;;
9042;SDS011;4556;49.150;8.808;2022-12-11T12:29:28;29.60;;;15.93;;
9042;SDS011;4556;49.150;8.808;2022-12-11T12:32:11;28.17;;;16.67;;
9042;SDS011;4556;49.150;8.808;2022-12-11T12:34:49;25.07;;;15.57;;
9042;SDS011;4556;49.150;8.808;2022-12-11T12:37:33;25.00;;;15.30;;
9042;SDS011;4556;49.150;8.808;2022-12-11T12:40:13;25.50;;;15.47;;
9042;SDS011;4556;49.150;8.808;2022-12-11T12:42:52;25.10;;;15.07;;
9042;SDS011;4556;49.150;8.808;2022-12-11T12:45:30;26.73;;;16.20;;
9042;SDS011;4556;49.150;8.808;2022-12-11T12:48:06;28.77;;;17.03;;
9042;SDS011;4556;49.150;8.808;2022-12-11T12:50:37;24.13;;;15.03;;
9042;SDS011;4556;49.150;8.808;2022-12-11T12:53:08;24.83;;;15.93;;
9042;SDS011;4556;49.150;8.808;2022-12-11T12:55:41;26.70;;;16.47;;
9042;SDS011;4556;49.150;8.808;2022-12-11T12:58:21;28.07;;;16.33;;
9042;SDS011;4556;49.150;8.808;2022-12-11T13:00:50;29.93;;;17.80;;
9042;SDS011;4556;49.150;8.808;2022-12-11T13:03:19;27.37;;;17.20;;
9042;SDS011;4556;49.150;8.808;2022-12-11T13:05:55;28.97;;;16.77;;
9042;SDS011;4556;49.150;8.808;2022-12-11T13:08:25;25.20;;;16.23;;
9042;SDS011;4556;49.150;8.808;2022-12-11T13:10:58;25.30;;;15.73;;
9042;SDS011;4556;49.150;8.808;2022-12-11T13:13:32;23.90;;;15.07;;
9042;SDS011;4556;49.150;8.808;2022-12-11T13:16:05;24.17;;;15.33;;
9042;SDS011;4556;49.150;8.808;2022-12-11T13:18:34;24.57;;;15.37;;
9042;SDS011;4556;49.150;8.808;2022-12-11T13:26:53;23.30;;;15.67;;
9042;SDS011;4556;49.150;8.808;2022-12-11T13:29:30;25.37;;;16.20;;
9042;SDS011;4556;49.150;8.808;2022-12-11T13:31:59;25.33;;;16.43;;
9042;SDS011;4556;49.150;8.808;2022-12-11T13:34:29;26.87;;;16.50;;
9042;SDS011;4556;49.150;8.808;2022-12-11T13:36:58;25.73;;;15.27;;
9042;SDS011;4556;49.150;8.808;2022-12-11T13:39:28;25.80;;;15.50;;
9042;SDS011;4556;49.150;8.808;2022-12-11T13:41:58;24.23;;;15.17;;
9042;SDS011;4556;49.150;8.808;2022-12-11T13:44:28;25.63;;;16.40;;
9042;SDS011;4556;49.150;8.808;2022-12-11T13:46:57;25.43;;;16.53;;
9042;SDS011;4556;49.150;8.808;2022-12-11T13:49:27;29.60;;;17.37;;
9042;SDS011;4556;49.150;8.808;2022-12-11T13:51:59;24.77;;;16.30;;
9042;SDS011;4556;49.150;8.808;2022-12-11T13:54:28;28.47;;;17.70;;
9042;SDS011;4556;49.150;8.808;2022-12-11T13:56:59;28.40;;;17.07;;
9042;SDS011;4556;49.150;8.808;2022-12-11T13:59:30;23.20;;;15.17;;
9042;SDS011;4556;49.150;8.808;2022-12-11T14:02:00;26.90;;;16.07;;
9042;SDS011;4556;49.150;8.808;2022-12-11T14:04:31;27.30;;;17.03;;
9042;SDS011;4556;49.150;8.808;2022-12-11T14:06:59;26.40;;;17.03;;
9042;SDS011;4556;49.150;8.808;2022-12-11T14:09:28;27.83;;;16.67;;
9042;SDS011;4556;49.150;8.808;2022-12-11T14:11:55;26.83;;;17.50;;
9042;SDS011;4556;49.150;8.808;2022-12-11T14:14:25;25.37;;;16.03;;
9042;SDS011;4556;49.150;8.808;2022-12-11T14:17:04;25.73;;;16.20;;
9042;SDS011;4556;49.150;8.808;2022-12-11T14:19:36;26.97;;;16.17;;
9042;SDS011;4556;49.150;8.808;2022-12-11T14:22:04;25.60;;;15.70;;
9042;SDS011;4556;49.150;8.808;2022-12-11T14:24:33;27.90;;;16.40;;
9042;SDS011;4556;49.150;8.808;2022-12-11T14:27:00;26.63;;;16.83;;
9042;SDS011;4556;49.150;8.808;2022-12-11T14:29:29;26.10;;;16.23;;
9042;SDS011;4556;49.150;8.808;2022-12-11T14:31:58;25.97;;;16.60;;
9042;SDS011;4556;49.150;8.808;2022-12-11T14:34:29;27.90;;;17.77;;
9042;SDS011;4556;49.150;8.808;2022-12-11T14:37:00;27.77;;;16.97;;
9042;SDS011;4556;49.150;8.808;2022-12-11T14:39:31;27.13;;;17.00;;
9042;SDS011;4556;49.150;8.808;2022-12-11T14:42:06;25.53;;;16.53;;
9042;SDS011;4556;49.150;8.808;2022-12-11T14:44:40;27.17;;;17.20;;
9042;SDS011;4556;49.150;8.808;2022-12-11T14:47:13;27.63;;;17.50;;
9042;SDS011;4556;49.150;8.808;2022-12-11T14:49:43;27.33;;;17.87;;
9042;SDS011;4556;49.150;8.808;2022-12-11T14:52:15;25.03;;;16.07;;
9042;SDS011;4556;49.150;8.808;2022-12-11T14:54:47;29.07;;;17.17;;
9042;SDS011;4556;49.150;8.808;2022-12-11T14:57:18;25.10;;;16.53;;
9042;SDS011;4556;49.150;8.808;2022-12-11T14:59:48;28.57;;;17.07;;
9042;SDS011;4556;49.150;8.808;2022-12-11T15:02:23;25.37;;;16.57;;
9042;SDS011;4556;49.150;8.808;2022-12-11T15:04:59;28.17;;;17.73;;
9042;SDS011;4556;49.150;8.808;2022-12-11T15:07:31;28.47;;;16.83;;
9042;SDS011;4556;49.150;8.808;2022-12-11T15:10:02;27.97;;;17.40;;
9042;SDS011;4556;49.150;8.808;2022-12-11T15:12:29;25.70;;;17.20;;
9042;SDS011;4556;49.150;8.808;2022-12-11T15:14:57;27.77;;;17.57;;